createdAt,value
2017-12-08T00:02:00.920Z,31.47
2017-12-08T00:04:29.251Z,24.83
2017-12-08T00:06:57.482Z,36.37
2017-12-08T00:09:27.244Z,41.27
2017-12-08T00:11:55.479Z,33.10
2017-12-08T00:14:23.934Z,32.50
2017-12-08T00:16:55.091Z,31.60
2017-12-08T00:19:24.359Z,44.93
2017-12-08T00:21:53.459Z,37.03
2017-12-08T00:24:23.425Z,48.53
2017-12-08T00:26:51.679Z,36.87
2017-12-08T00:29:21.869Z,38.30
2017-12-08T00:31:52.360Z,54.77
2017-12-08T00:34:23.123Z,35.57
2017-12-08T00:36:52.377Z,32.63
2017-12-08T00:39:21.853Z,36.67
2017-12-08T00:41:50.791Z,33.83
2017-12-08T00:44:21.010Z,46.17
2017-12-08T00:47:00.038Z,38.23
2017-12-08T00:49:32.514Z,40.60
2017-12-08T00:52:05.407Z,50.73
2017-12-08T00:54:37.809Z,47.67
2017-12-08T00:57:09.895Z,33.33
2017-12-08T00:59:40.735Z,53.17
2017-12-08T01:02:12.515Z,43.77
2017-12-08T01:04:43.280Z,46.27
2017-12-08T01:07:12.435Z,36.17
2017-12-08T01:09:44.326Z,34.47
2017-12-08T01:12:14.926Z,43.63
2017-12-08T01:14:44.069Z,31.77
2017-12-08T01:17:13.374Z,31.87
2017-12-08T01:19:43.229Z,38.43
2017-12-08T01:22:12.352Z,31.57
2017-12-08T01:24:41.730Z,26.60
2017-12-08T01:27:11.064Z,45.97
2017-12-08T01:29:40.939Z,37.43
2017-12-08T01:32:11.266Z,56.60
2017-12-08T01:34:40.191Z,34.47
2017-12-08T01:37:10.785Z,40.80
2017-12-08T01:39:39.990Z,43.90
2017-12-08T01:42:11.353Z,42.13
2017-12-08T01:44:41.364Z,40.23
2017-12-08T01:47:10.652Z,42.63
2017-12-08T01:49:40.525Z,34.07
2017-12-08T01:52:08.876Z,41.03
2017-12-08T01:54:37.756Z,31.60
2017-12-08T01:57:07.855Z,32.20
2017-12-08T01:59:36.675Z,30.67
2017-12-08T02:02:05.539Z,30.17
2017-12-08T02:04:34.890Z,35.93
2017-12-08T02:07:03.329Z,35.93
2017-12-08T02:09:34.876Z,47.47
2017-12-08T02:12:03.947Z,46.13
2017-12-08T02:14:35.329Z,31.97
2017-12-08T02:17:04.399Z,34.23
2017-12-08T02:19:32.626Z,37.57
2017-12-08T02:22:03.038Z,31.50
2017-12-08T02:24:33.468Z,42.83
2017-12-08T02:27:06.258Z,27.50
2017-12-08T02:29:34.820Z,24.67
2017-12-08T02:32:03.062Z,37.40
2017-12-08T02:34:31.335Z,40.50
2017-12-08T02:36:59.607Z,32.67
2017-12-08T02:39:29.665Z,47.73
2017-12-08T02:41:57.908Z,43.00
2017-12-08T02:44:26.149Z,20.63
2017-12-08T02:46:54.446Z,41.77
2017-12-08T02:49:24.680Z,36.80
2017-12-08T02:51:54.054Z,31.00
2017-12-08T02:54:25.391Z,34.60
2017-12-08T02:56:54.893Z,31.03
2017-12-08T02:59:25.631Z,22.90
2017-12-08T03:01:53.889Z,13.80
2017-12-08T03:04:23.525Z,22.27
2017-12-08T03:06:57.805Z,18.00
2017-12-08T03:09:27.540Z,18.70
2017-12-08T03:11:59.576Z,14.97
2017-12-08T03:14:30.261Z,19.20
2017-12-08T03:16:58.595Z,17.83
2017-12-08T03:19:28.751Z,12.53
2017-12-08T03:21:57.431Z,22.40
2017-12-08T03:24:28.458Z,11.73
2017-12-08T03:26:58.540Z,40.83
2017-12-08T03:29:29.195Z,39.13
2017-12-08T03:31:59.205Z,26.90
2017-12-08T03:34:28.883Z,20.97
2017-12-08T03:36:58.254Z,18.87
2017-12-08T03:39:26.570Z,22.83
2017-12-08T03:41:56.352Z,16.80
2017-12-08T03:44:25.373Z,38.73
2017-12-08T03:46:54.846Z,28.67
2017-12-08T03:49:24.154Z,25.93
2017-12-08T03:51:55.053Z,49.23
2017-12-08T03:54:23.324Z,34.60
2017-12-08T03:56:51.703Z,22.37
2017-12-08T03:59:20.695Z,26.33
2017-12-08T04:01:48.966Z,19.73
2017-12-08T04:04:19.335Z,19.33
2017-12-08T04:06:48.564Z,22.73
2017-12-08T04:09:19.374Z,28.80
2017-12-08T04:11:48.890Z,32.33
2017-12-08T04:14:20.074Z,16.43
2017-12-08T04:16:50.298Z,24.43
2017-12-08T04:19:19.584Z,27.57
2017-12-08T04:21:53.075Z,18.03
2017-12-08T04:24:23.066Z,15.80
2017-12-08T04:26:54.887Z,7.07
2017-12-08T04:29:23.169Z,24.23
2017-12-08T04:31:53.993Z,4.87
2017-12-08T04:34:23.157Z,11.80
2017-12-08T04:36:56.066Z,21.73
2017-12-08T04:39:26.986Z,15.33
2017-12-08T04:41:55.444Z,26.40
2017-12-08T04:44:29.104Z,10.90
2017-12-08T04:47:01.189Z,16.10
2017-12-08T04:49:30.269Z,9.73
2017-12-08T04:51:58.552Z,15.10
2017-12-08T04:54:29.372Z,9.30
2017-12-08T04:56:59.220Z,25.87
2017-12-08T04:59:31.214Z,16.77
2017-12-08T05:02:01.939Z,11.00
2017-12-08T05:04:31.115Z,10.90
2017-12-08T05:07:01.266Z,18.57
2017-12-08T05:09:30.373Z,22.83
2017-12-08T05:11:58.591Z,8.20
2017-12-08T05:14:27.689Z,10.70
2017-12-08T05:16:55.967Z,6.43
2017-12-08T05:19:26.237Z,17.90
2017-12-08T05:21:55.054Z,12.20
2017-12-08T05:24:24.929Z,11.13
2017-12-08T05:26:53.975Z,32.17
2017-12-08T05:29:23.233Z,18.10
2017-12-08T05:31:52.330Z,15.40
2017-12-08T05:34:20.616Z,12.23
2017-12-08T05:36:49.856Z,6.87
2017-12-08T05:39:18.873Z,10.70
2017-12-08T05:41:47.159Z,26.73
2017-12-08T05:44:18.344Z,16.27
2017-12-08T05:46:46.626Z,15.30
2017-12-08T05:49:17.513Z,12.23
2017-12-08T05:51:48.308Z,12.00
2017-12-08T05:54:16.807Z,15.83
2017-12-08T05:56:47.959Z,12.53
2017-12-08T05:59:20.105Z,21.10
2017-12-08T06:01:49.206Z,14.60
2017-12-08T06:04:18.949Z,18.67
2017-12-08T06:06:48.070Z,23.63
2017-12-08T06:09:16.940Z,19.20
2017-12-08T06:11:46.264Z,42.87
2017-12-08T06:14:16.916Z,22.37
2017-12-08T06:16:46.464Z,24.57
2017-12-08T06:19:16.827Z,32.20
2017-12-08T06:21:48.826Z,23.90
2017-12-08T06:24:20.372Z,24.27
2017-12-08T06:26:50.851Z,35.20
2017-12-08T06:29:19.156Z,25.53
2017-12-08T06:31:48.383Z,25.60
2017-12-08T06:34:18.096Z,16.77
2017-12-08T06:36:49.496Z,28.23
2017-12-08T06:39:18.878Z,14.07
2017-12-08T06:41:49.490Z,33.20
2017-12-08T06:44:19.145Z,30.57
2017-12-08T06:46:50.134Z,20.80
2017-12-08T06:49:21.927Z,22.93
2017-12-08T06:51:50.963Z,26.33
2017-12-08T06:54:21.468Z,23.53
2017-12-08T06:56:52.782Z,34.47
2017-12-08T06:59:23.339Z,29.73
2017-12-08T07:01:54.934Z,40.17
2017-12-08T07:04:25.140Z,19.03
2017-12-08T07:06:53.997Z,20.43
2017-12-08T07:09:23.932Z,31.97
2017-12-08T07:11:54.258Z,20.37
2017-12-08T07:14:24.161Z,17.73
2017-12-08T07:16:52.502Z,28.70
2017-12-08T07:19:20.937Z,27.63
2017-12-08T07:21:50.313Z,18.03
2017-12-08T07:24:22.990Z,28.77
2017-12-08T07:26:51.483Z,13.17
2017-12-08T07:29:23.197Z,23.73
2017-12-08T07:31:53.262Z,20.87
2017-12-08T07:34:22.457Z,26.10
2017-12-08T07:36:51.957Z,22.07
2017-12-08T07:39:22.172Z,21.90
2017-12-08T07:41:52.374Z,20.97
2017-12-08T07:44:21.741Z,18.13
2017-12-08T07:46:51.526Z,16.10
2017-12-08T07:49:21.287Z,21.60
2017-12-08T07:51:51.561Z,19.37
2017-12-08T07:54:23.097Z,28.07
2017-12-08T07:56:55.104Z,34.13
2017-12-08T07:59:25.210Z,30.37
2017-12-08T08:01:56.714Z,20.03
2017-12-08T08:04:25.695Z,47.93
2017-12-08T08:06:54.587Z,14.87
2017-12-08T08:09:23.806Z,22.50
2017-12-08T08:11:52.254Z,31.67
2017-12-08T08:14:20.737Z,31.03
2017-12-08T08:16:53.089Z,30.93
2017-12-08T08:19:22.386Z,23.23
2017-12-08T08:21:51.397Z,22.83
2017-12-08T08:24:19.662Z,30.57
2017-12-08T08:26:47.957Z,28.83
2017-12-08T08:29:16.233Z,24.10
2017-12-08T08:31:44.541Z,27.00
2017-12-08T08:34:12.925Z,34.83
2017-12-08T08:36:42.034Z,12.90
2017-12-08T08:39:10.359Z,14.10
2017-12-08T08:41:38.680Z,28.77
2017-12-08T08:44:06.969Z,19.03
2017-12-08T08:46:35.289Z,31.40
2017-12-08T08:49:03.651Z,31.17
2017-12-08T08:51:32.766Z,25.43
2017-12-08T08:54:01.117Z,24.27
2017-12-08T08:56:29.475Z,15.50
2017-12-08T08:58:58.696Z,25.73
2017-12-08T09:01:27.814Z,11.07
2017-12-08T09:03:56.141Z,11.47
2017-12-08T09:06:24.407Z,9.73
2017-12-08T09:08:52.674Z,13.47
2017-12-08T09:11:21.097Z,7.23
2017-12-08T09:13:49.319Z,17.17
2017-12-08T09:16:17.629Z,9.10
2017-12-08T09:18:45.887Z,10.50
2017-12-08T09:21:14.204Z,17.00
2017-12-08T09:23:43.263Z,15.57
2017-12-08T09:26:11.569Z,24.03
2017-12-08T09:28:39.894Z,20.77
2017-12-08T09:31:08.180Z,8.83
2017-12-08T09:33:36.501Z,18.33
2017-12-08T09:36:04.781Z,14.20
2017-12-08T09:38:33.034Z,11.30
2017-12-08T09:41:01.346Z,9.20
2017-12-08T09:43:29.594Z,26.57
2017-12-08T09:45:57.840Z,20.10
2017-12-08T09:48:26.150Z,14.00
2017-12-08T09:50:54.442Z,18.27
2017-12-08T09:53:22.724Z,14.17
2017-12-08T09:55:51.025Z,9.07
2017-12-08T09:58:20.097Z,10.17
2017-12-08T10:00:48.346Z,19.87
2017-12-08T10:03:16.633Z,15.97
2017-12-08T10:05:44.898Z,11.57
2017-12-08T10:08:13.257Z,9.77
2017-12-08T10:10:42.245Z,21.67
2017-12-08T10:13:10.734Z,8.03
2017-12-08T10:15:39.768Z,6.13
2017-12-08T10:18:08.083Z,24.90
2017-12-08T10:20:37.158Z,29.67
2017-12-08T10:23:06.204Z,13.00
2017-12-08T10:25:34.621Z,23.67
2017-12-08T10:28:02.966Z,9.43
2017-12-08T10:30:31.183Z,10.57
2017-12-08T10:33:00.248Z,13.40
2017-12-08T10:35:28.523Z,11.83
2017-12-08T10:37:56.910Z,12.57
2017-12-08T10:40:25.536Z,17.77
2017-12-08T10:42:54.638Z,33.70
2017-12-08T10:45:23.698Z,11.27
2017-12-08T10:47:51.983Z,21.90
2017-12-08T10:50:20.297Z,34.43
2017-12-08T10:52:49.428Z,34.10
2017-12-08T10:55:17.739Z,33.90
2017-12-08T10:57:46.062Z,31.37
2017-12-08T11:00:15.174Z,29.77
2017-12-08T11:02:43.480Z,20.17
2017-12-08T11:05:11.728Z,13.57
2017-12-08T11:07:40.757Z,16.33
2017-12-08T11:10:09.067Z,14.40
2017-12-08T11:12:37.408Z,12.00
2017-12-08T11:15:06.442Z,19.60
2017-12-08T11:17:35.585Z,19.17
2017-12-08T11:20:03.842Z,8.33
2017-12-08T11:22:32.113Z,28.37
2017-12-08T11:25:00.448Z,13.97
2017-12-08T11:27:28.724Z,17.47
2017-12-08T11:29:58.066Z,16.73
2017-12-08T11:32:26.382Z,14.30
2017-12-08T11:34:54.689Z,7.00
2017-12-08T11:37:23.014Z,14.10
2017-12-08T11:39:51.342Z,23.43
2017-12-08T11:42:19.644Z,15.40
2017-12-08T11:44:48.050Z,11.47
2017-12-08T11:47:17.278Z,13.67
2017-12-08T11:49:45.552Z,16.93
2017-12-08T11:52:13.886Z,7.53
2017-12-08T11:54:42.134Z,11.80
2017-12-08T11:57:11.238Z,11.20
2017-12-08T11:59:39.610Z,6.50
2017-12-08T12:02:08.649Z,17.57
2017-12-08T12:04:36.933Z,12.83
2017-12-08T12:07:05.299Z,10.50
2017-12-08T12:09:34.332Z,10.23
2017-12-08T12:12:02.745Z,5.23
2017-12-08T12:14:31.030Z,18.67
2017-12-08T12:16:59.368Z,11.30
2017-12-08T12:19:27.638Z,10.90
2017-12-08T12:21:55.928Z,11.77
2017-12-08T12:24:24.223Z,24.97
2017-12-08T12:26:52.544Z,12.87
2017-12-08T12:29:21.639Z,14.10
2017-12-08T12:31:50.774Z,23.20
2017-12-08T12:34:19.043Z,14.90
2017-12-08T12:36:47.390Z,13.43
2017-12-08T12:39:16.104Z,8.30
2017-12-08T12:41:45.156Z,27.50
2017-12-08T12:44:14.092Z,23.17
2017-12-08T12:46:43.100Z,6.37
2017-12-08T12:49:11.439Z,11.43
2017-12-08T12:51:40.447Z,11.10
2017-12-08T12:54:09.486Z,13.83
2017-12-08T12:56:37.790Z,17.03
2017-12-08T12:59:06.923Z,19.10
2017-12-08T13:01:35.960Z,9.90
2017-12-08T13:04:04.254Z,21.73
2017-12-08T13:06:32.483Z,17.40
2017-12-08T13:09:01.644Z,15.77
2017-12-08T13:11:30.692Z,11.30
2017-12-08T13:13:58.941Z,5.93
2017-12-08T13:16:27.988Z,18.03
2017-12-08T13:18:56.301Z,17.67
2017-12-08T13:21:25.902Z,8.33
2017-12-08T13:23:54.354Z,9.77
2017-12-08T13:26:22.619Z,9.60
2017-12-08T13:28:50.887Z,16.30
2017-12-08T13:31:19.138Z,7.03
2017-12-08T13:33:48.220Z,5.00
2017-12-08T13:36:16.501Z,10.87
2017-12-08T13:38:45.545Z,13.13
2017-12-08T13:41:14.078Z,15.20
2017-12-08T13:43:43.370Z,8.47
2017-12-08T13:46:12.522Z,20.43
2017-12-08T13:48:42.500Z,6.50
2017-12-08T13:51:11.987Z,7.33
2017-12-08T13:56:53.528Z,4.37
2017-12-08T13:59:22.299Z,6.57
2017-12-08T14:01:50.563Z,5.20
2017-12-08T14:04:19.706Z,7.20
2017-12-08T14:06:48.080Z,6.80
2017-12-08T14:09:17.252Z,6.97
2017-12-08T14:11:46.338Z,6.53
2017-12-08T14:14:15.447Z,24.40
2017-12-08T14:16:44.181Z,9.30
2017-12-08T14:19:12.492Z,9.03
2017-12-08T14:21:40.843Z,9.00
2017-12-08T14:24:09.228Z,6.30
2017-12-08T14:26:37.543Z,13.13
2017-12-08T14:29:06.642Z,10.10
2017-12-08T14:31:34.969Z,12.10
2017-12-08T14:34:03.290Z,14.57
2017-12-08T14:36:31.606Z,12.03
2017-12-08T14:39:00.666Z,10.00
2017-12-08T14:41:29.732Z,13.67
2017-12-08T14:43:58.003Z,18.83
2017-12-08T14:46:26.267Z,27.73
2017-12-08T14:48:54.846Z,13.13
2017-12-08T14:51:23.249Z,13.10
2017-12-08T14:53:51.621Z,10.10
2017-12-08T14:56:19.948Z,11.40
2017-12-08T14:58:48.199Z,15.70
2017-12-08T15:01:16.450Z,10.47
2017-12-08T15:03:45.097Z,10.80
2017-12-08T15:06:14.134Z,13.40
2017-12-08T15:08:43.490Z,11.20
2017-12-08T15:11:11.891Z,8.13
2017-12-08T15:13:40.216Z,13.93
2017-12-08T15:16:08.582Z,8.83
2017-12-08T15:18:36.919Z,10.83
2017-12-08T15:21:06.005Z,7.40
2017-12-08T15:23:34.365Z,16.13
2017-12-08T15:26:02.650Z,8.23
2017-12-08T15:28:30.906Z,8.10
2017-12-08T15:30:59.222Z,9.07
2017-12-08T15:33:29.065Z,17.20
2017-12-08T15:35:57.357Z,6.50
2017-12-08T15:38:25.655Z,5.93
2017-12-08T15:40:54.710Z,5.27
2017-12-08T15:43:22.963Z,14.83
2017-12-08T15:45:52.011Z,10.77
2017-12-08T15:48:20.372Z,12.23
2017-12-08T15:50:48.676Z,12.33
2017-12-08T15:53:17.034Z,4.40
2017-12-08T15:55:45.576Z,37.47
2017-12-08T15:58:13.990Z,11.53
2017-12-08T16:00:42.345Z,13.30
2017-12-08T16:03:11.400Z,17.40
2017-12-08T16:05:40.498Z,8.10
2017-12-08T16:08:08.874Z,17.10
2017-12-08T16:10:37.142Z,17.33
2017-12-08T16:13:05.418Z,13.33
2017-12-08T16:15:33.874Z,15.10
2017-12-08T16:18:02.895Z,13.40
2017-12-08T16:20:31.169Z,11.87
2017-12-08T16:22:59.479Z,8.93
2017-12-08T16:25:27.738Z,5.60
2017-12-08T16:27:56.775Z,11.57
2017-12-08T16:30:25.056Z,5.70
2017-12-08T16:32:53.330Z,7.87
2017-12-08T16:35:22.416Z,6.30
2017-12-08T16:37:50.756Z,5.40
2017-12-08T16:40:18.999Z,9.00
2017-12-08T16:42:47.265Z,10.93
2017-12-08T16:45:16.287Z,5.20
2017-12-08T16:47:44.573Z,14.80
2017-12-08T16:50:12.846Z,6.03
2017-12-08T16:52:41.215Z,10.70
2017-12-08T16:55:09.553Z,9.87
2017-12-08T16:57:39.495Z,7.53
2017-12-08T17:00:09.236Z,12.33
2017-12-08T17:02:37.659Z,12.90
2017-12-08T17:05:05.973Z,17.03
2017-12-08T17:07:35.019Z,14.33
2017-12-08T17:10:03.609Z,9.23
2017-12-08T17:12:31.882Z,15.93
2017-12-08T17:15:00.164Z,15.23
2017-12-08T17:17:29.242Z,27.07
2017-12-08T17:19:58.396Z,11.17
2017-12-08T17:22:27.603Z,35.70
2017-12-08T17:24:55.941Z,11.43
2017-12-08T17:27:25.057Z,13.83
2017-12-08T17:29:54.120Z,17.37
2017-12-08T17:32:23.410Z,11.20
2017-12-08T17:34:52.532Z,13.53
2017-12-08T17:37:20.806Z,40.27
2017-12-08T17:39:49.190Z,9.33
2017-12-08T17:42:18.280Z,11.30
2017-12-08T17:44:46.510Z,12.10
2017-12-08T17:47:14.829Z,8.57
2017-12-08T17:49:43.994Z,12.27
2017-12-08T17:52:12.288Z,17.00
2017-12-08T17:54:40.729Z,9.83
2017-12-08T17:57:09.279Z,27.57
2017-12-08T17:59:37.813Z,23.43
2017-12-08T18:02:06.205Z,17.13
2017-12-08T18:04:35.272Z,43.23
2017-12-08T18:07:04.378Z,14.23
2017-12-08T18:09:33.606Z,22.87
2017-12-08T18:12:02.086Z,17.83
2017-12-08T18:14:30.454Z,16.07
2017-12-08T18:16:58.986Z,11.00
2017-12-08T18:19:28.164Z,9.60
2017-12-08T18:21:56.619Z,7.60
2017-12-08T18:24:24.925Z,17.30
2017-12-08T18:26:53.220Z,19.83
2017-12-08T18:29:21.536Z,18.97
2017-12-08T18:31:50.932Z,14.60
2017-12-08T18:34:20.003Z,13.40
2017-12-08T18:36:48.511Z,9.03
2017-12-08T18:39:16.986Z,7.10
2017-12-08T18:41:46.047Z,9.87
2017-12-08T18:44:14.862Z,15.93
2017-12-08T18:46:43.964Z,12.40
2017-12-08T18:49:12.330Z,11.43
2017-12-08T18:51:41.451Z,13.13
2017-12-08T18:54:09.828Z,23.83
2017-12-08T18:56:38.184Z,17.90
2017-12-08T18:59:07.396Z,16.40
2017-12-08T19:01:37.090Z,8.20
2017-12-08T19:04:05.432Z,22.93
2017-12-08T19:06:33.770Z,15.77
2017-12-08T19:09:02.106Z,10.83
2017-12-08T19:11:30.519Z,18.70
2017-12-08T19:13:58.818Z,17.60
2017-12-08T19:16:27.115Z,19.20
2017-12-08T19:18:55.433Z,18.47
2017-12-08T19:21:24.551Z,12.30
2017-12-08T19:23:52.869Z,22.60
2017-12-08T19:26:22.044Z,11.33
2017-12-08T19:28:51.521Z,16.33
2017-12-08T19:31:19.871Z,11.30
2017-12-08T19:33:48.196Z,14.70
2017-12-08T19:36:16.529Z,14.83
2017-12-08T19:38:45.794Z,12.10
2017-12-08T19:41:14.191Z,25.93
2017-12-08T19:43:42.484Z,11.13
2017-12-08T19:46:11.013Z,16.27
2017-12-08T19:48:39.304Z,22.00
2017-12-08T19:51:07.534Z,19.20
2017-12-08T19:53:35.912Z,13.50
2017-12-08T19:56:04.313Z,19.33
2017-12-08T19:58:32.614Z,15.63
2017-12-08T20:01:01.662Z,23.37
2017-12-08T20:03:29.984Z,14.60
2017-12-08T20:05:58.359Z,17.63
2017-12-08T20:08:26.820Z,18.10
2017-12-08T20:10:56.004Z,14.13
2017-12-08T20:13:24.543Z,15.50
2017-12-08T20:15:52.985Z,20.50
2017-12-08T20:18:21.318Z,24.63
2017-12-08T20:20:49.693Z,16.17
2017-12-08T20:23:19.050Z,21.33
2017-12-08T20:25:49.934Z,16.77
2017-12-08T20:28:18.351Z,22.27
2017-12-08T20:30:46.758Z,15.27
2017-12-08T20:33:15.935Z,33.23
2017-12-08T20:35:44.331Z,23.30
2017-12-08T20:38:12.633Z,15.70
2017-12-08T20:40:40.966Z,26.53
2017-12-08T20:43:09.245Z,35.47
2017-12-08T20:45:37.639Z,32.97
2017-12-08T20:48:05.989Z,45.43
2017-12-08T20:50:34.410Z,25.83
2017-12-08T20:53:03.687Z,29.30
2017-12-08T20:55:34.018Z,32.40
2017-12-08T20:58:04.103Z,26.10
2017-12-08T21:00:32.464Z,18.93
2017-12-08T21:03:01.893Z,22.20
2017-12-08T21:05:32.002Z,18.70
2017-12-08T21:08:02.506Z,23.70
2017-12-08T21:10:31.484Z,20.60
2017-12-08T21:13:00.583Z,37.70
2017-12-08T21:15:29.985Z,38.17
2017-12-08T21:18:01.906Z,27.27
2017-12-08T21:20:33.869Z,23.13
2017-12-08T21:23:03.204Z,32.70
2017-12-08T21:25:31.721Z,23.00
2017-12-08T21:28:00.197Z,24.33
2017-12-08T21:30:28.574Z,22.50
2017-12-08T21:32:57.444Z,20.40
2017-12-08T21:35:26.471Z,27.13
2017-12-08T21:37:54.887Z,25.10
2017-12-08T21:40:23.246Z,12.77
2017-12-08T21:42:51.732Z,28.57
2017-12-08T21:45:19.997Z,19.37
2017-12-08T21:47:48.601Z,16.23
2017-12-08T21:50:17.556Z,10.07
2017-12-08T21:52:47.680Z,11.67
2017-12-08T21:55:17.988Z,10.00
2017-12-08T21:57:47.140Z,11.33
2017-12-08T22:00:15.675Z,10.67
2017-12-08T22:02:44.084Z,8.07
2017-12-08T22:05:12.573Z,6.90
2017-12-08T22:07:41.036Z,6.90
2017-12-08T22:10:10.358Z,11.13
2017-12-08T22:12:38.776Z,9.17
2017-12-08T22:15:07.276Z,7.40
2017-12-08T22:17:35.925Z,7.50
2017-12-08T22:20:04.510Z,4.60
2017-12-08T22:22:32.893Z,6.60
2017-12-08T22:25:01.527Z,5.57
2017-12-08T22:27:29.938Z,6.80
2017-12-08T22:29:58.480Z,4.03
2017-12-08T22:32:27.227Z,6.97
2017-12-08T22:34:55.708Z,4.97
2017-12-08T22:37:24.084Z,4.83
2017-12-08T22:39:52.605Z,10.43
2017-12-08T22:42:20.953Z,6.27
2017-12-08T22:44:49.265Z,5.43
2017-12-08T22:47:17.736Z,9.93
2017-12-08T22:49:46.874Z,8.60
2017-12-08T22:52:15.353Z,12.20
2017-12-08T22:54:43.854Z,8.83
2017-12-08T22:57:12.233Z,9.20
2017-12-08T22:59:41.501Z,6.40
2017-12-08T23:02:09.817Z,8.67
2017-12-08T23:04:39.116Z,6.77
2017-12-08T23:07:07.488Z,8.67
2017-12-08T23:09:35.783Z,6.83
2017-12-08T23:12:04.624Z,6.17
2017-12-08T23:14:32.893Z,10.63
2017-12-08T23:17:01.196Z,9.43
2017-12-08T23:19:30.354Z,8.67
2017-12-08T23:21:58.602Z,7.53
2017-12-08T23:24:27.469Z,6.60
2017-12-08T23:26:56.524Z,9.47
2017-12-08T23:29:24.781Z,10.07
2017-12-08T23:31:53.811Z,9.50
2017-12-08T23:34:22.135Z,7.30
2017-12-08T23:36:50.407Z,9.07
2017-12-08T23:39:18.730Z,11.03
2017-12-08T23:41:47.046Z,8.43
2017-12-08T23:44:16.081Z,9.13
2017-12-08T23:46:44.365Z,15.33
2017-12-08T23:49:12.697Z,7.87
2017-12-08T23:51:41.776Z,10.37
2017-12-08T23:54:10.064Z,16.90
2017-12-08T23:56:39.091Z,13.80
2017-12-08T23:59:07.394Z,9.10
